Terminal Aerodrome Forecast
Issued by NWS Mt. Holly, NJ

Home | Current Version | Previous Version | Text Only | Print | Product List | Glossary On
Versions: 1 2 3 4 5 6 7 8 9 10 11 12 13 14
000
FTUS41 KPHI 182300
TAFRDG
TAF
KRDG 182320Z 1900/1924 21006KT P6SM BKN250
     FM190600 33003KT P6SM BKN250
     FM191400 33010G17KT P6SM SCT250
     FM192000 35010KT P6SM SCT250=

USA.gov is the U.S. government's official web portal to all federal, state and local government web resources and services.